• Join FlightAware (Why Join?)
  • Login
  • US Flag 
03:44PM EDT


 

Airport Tracker/Info


-or-


 

Live Flight TrackerFlight Track Log ✈ SWA1728 ✈ 29-Apr-2013 ✈ KLAS - KOMA

Flight Track Log - Related Links

Times and Time Zones

All times are in EDT time to prevent confusion due to time zone crossing. See the SWA1728 flight status page for this flight to view local times or setup timezone preferences in your user account.

Time Position Orientation Groundspeed Altitude Reporting Facility
EDT Latitude Longitude Course Direction KTS MPH feet Rate Location/Type
01:00PM 36.0764 -115.2400 269° West 219 252 4,500  Level Los Angeles Center
01:01PM 36.1142 -115.2942 311° West 252 290 6,900 1,920 Climbing Los Angeles Center
01:02PM 36.1317 -115.2953 357° North 262 302 7,500 1,740 Climbing Los Angeles Center
01:03PM 36.1867 -115.2175 49° Northeast 266 306 9,700 1,740 Climbing Los Angeles Center
01:04PM 36.1969 -115.0814 85° East 333 383 11,200 1,980 Climbing Los Angeles Center
01:05PM 36.1983 -114.9572 89° East 358 412 13,800 2,220 Climbing Los Angeles Center
01:06PM 36.1997 -114.8308 89° East 365 420 15,900 1,980 Climbing Los Angeles Center
01:07PM 36.1994 -114.6972 90° East 382 440 17,900 1,920 Climbing Los Angeles Center
01:08PM 36.1972 -114.5594 91° East 396 456 19,900 1,980 Climbing Los Angeles Center
01:09PM 36.1958 -114.4197 91° East 403 464 22,000 1,920 Climbing Los Angeles Center
01:10PM 36.1939 -114.2486 91° East 412 474 23,900 1,620 Climbing Los Angeles Center
01:11PM 36.2042 -114.1356 84° East 412 474 25,400 1,260 Climbing Los Angeles Center
01:12PM 36.2236 -113.9922 80° East 418 481 26,600 1,080 Climbing Los Angeles Center
01:13PM 36.2431 -113.8161 82° East 427 491 27,900 1,440 Climbing Los Angeles Center
01:15PM 36.2789 -113.6433 76° East 430 495 29,900 1,500 Climbing Los Angeles Center
01:16PM 36.3172 -113.5083 71° East 420 483 31,100 1,020 Climbing Los Angeles Center
01:17PM 36.3647 -113.3739 66° East 423 487 32,100 900 Climbing Los Angeles Center
01:18PM 36.4236 -113.2158 65° Northeast 422 486 33,000 420 Climbing Los Angeles Center
01:19PM 36.4717 -113.0822 66° East 423 487 33,000  Level Los Angeles Center
01:20PM 36.5108 -112.9750 66° East 425 489 33,000  Level Los Angeles Center
01:21PM 36.5742 -112.8003 66° East 426 490 33,000  Level Los Angeles Center
01:22PM 36.6206 -112.6675 66° East 423 487 33,000  Level Los Angeles Center
01:23PM 36.6689 -112.5339 66° East 423 487 33,000  Level Los Angeles Center
01:24PM 36.7261 -112.3742 66° East 423 487 33,000  Level Los Angeles Center
01:25PM 36.7725 -112.2397 67° East 423 487 33,000  Level Los Angeles Center
01:26PM 36.8381 -112.0542 66° East 421 484 33,000  Level Los Angeles Center
01:27PM 36.8831 -111.9231 67° East 422 486 33,000  Level Denver Center
01:28PM 36.9272 -111.7956 67° East 420 483 33,000  Level Denver Center
01:29PM 36.9794 -111.6453 66° East 421 484 33,000  Level Denver Center
01:30PM 37.0244 -111.5175 66° East 420 483 33,000  Level Denver Center
01:31PM 37.0756 -111.3664 67° East 421 484 33,000  Level Denver Center
01:32PM 37.1197 -111.2372 67° East 421 484 33,000  Level Denver Center
01:33PM 37.1711 -111.0869 67° East 419 482 33,000  Level Denver Center
01:35PM 37.2164 -110.9550 67° East 422 486 33,000  Level Denver Center
01:36PM 37.2597 -110.8244 67° East 423 487 33,000  Level Denver Center
01:37PM 37.3108 -110.6731 67° East 422 486 33,000  Level Denver Center
01:38PM 37.3547 -110.5439 67° East 421 484 33,000  Level Denver Center
01:39PM 37.4061 -110.3925 67° East 421 484 33,000  Level Denver Center
01:40PM 37.4511 -110.2603 67° East 425 489 33,000  Level Denver Center
01:41PM 37.5006 -110.0983 69° East 433 498 33,000  Level Denver Center
01:42PM 37.5447 -109.9639 67° East 434 499 33,000  Level Denver Center
01:43PM 37.5983 -109.8025 67° East 439 505 33,000  Level Denver Center
01:44PM 37.6486 -109.6433 68° East 438 504 33,000  Level Denver Center
01:45PM 37.7000 -109.4856 68° East 435 501 33,000  Level Denver Center
01:46PM 37.7433 -109.3489 68° East 438 504 33,000  Level Denver Center
01:47PM 37.7944 -109.1931 67° East 433 498 33,000  Level Denver Center
01:48PM 37.8378 -109.0547 68° East 437 503 33,000  Level Denver Center
01:49PM 37.8878 -108.8947 68° East 437 503 33,000  Level Denver Center
01:50PM 37.9303 -108.7594 68° East 434 499 33,000  Level Denver Center
01:51PM 37.9792 -108.6019 68° East 430 495 33,000  Level Denver Center
01:52PM 38.0214 -108.4672 68° East 429 494 33,000  Level Denver Center
01:53PM 38.0686 -108.3153 68° East 428 493 33,000  Level Denver Center
01:54PM 38.1100 -108.1808 69° East 427 491 33,000  Level Denver Center
01:55PM 38.1567 -108.0242 69° East 424 488 33,000  Level Denver Center
01:56PM 38.1978 -107.8889 69° East 427 491 33,000  Level Denver Center
01:57PM 38.2450 -107.7336 69° East 424 488 33,000  Level Denver Center
01:58PM 38.2858 -107.5983 69° East 426 490 33,000  Level Denver Center
02:00PM 38.3344 -107.4389 69° East 433 498 33,000  Level Denver Center
02:01PM 38.3789 -107.3064 67° East 429 494 33,000  Level Denver Center
02:02PM 38.4294 -107.1767 64° Northeast 428 493 33,000  Level Denver Center
02:03PM 38.4922 -107.0144 64° Northeast 426 490 33,000  Level Denver Center
02:04PM 38.5550 -106.8525 64° Northeast 425 489 33,000  Level Denver Center
02:05PM 38.6069 -106.7147 64° Northeast 431 496 33,000  Level Denver Center
02:06PM 38.6597 -106.5758 64° Northeast 436 502 33,000  Level Denver Center
02:07PM 38.7139 -106.4350 64° Northeast 443 510 33,000  Level Denver Center
02:08PM 38.7658 -106.2956 64° Northeast 438 504 33,000  Level Denver Center
02:09PM 38.8233 -106.1436 64° Northeast 433 498 33,000  Level Denver Center
02:10PM 38.8747 -106.0036 65° Northeast 430 495 33,000  Level Denver Center
02:11PM 38.9267 -105.8619 65° Northeast 433 498 33,000  Level Denver Center
02:12PM 38.9883 -105.6981 64° Northeast 434 499 33,000  Level Denver Center
02:13PM 39.0400 -105.5569 65° Northeast 432 497 33,000  Level Denver Center
02:14PM 39.0919 -105.4150 65° Northeast 435 501 33,000  Level Denver Center
02:15PM 39.1442 -105.2703 65° Northeast 442 509 33,000  Level Denver Center
02:16PM 39.1958 -105.1286 65° Northeast 432 497 33,000  Level Denver Center
02:17PM 39.2494 -104.9814 65° Northeast 445 512 33,000  Level Denver Center
02:18PM 39.3017 -104.8394 65° Northeast 438 504 33,000  Level Denver Center
02:19PM 39.3608 -104.6725 65° Northeast 438 504 33,000  Level Denver Center
02:20PM 39.4119 -104.5269 66° East 447 514 33,000  Level Denver Center
02:21PM 39.4631 -104.3814 66° East 447 514 33,000  Level Denver Center
02:22PM 39.5147 -104.2358 65° Northeast 446 513 33,000  Level Denver Center
02:23PM 39.5656 -104.0892 66° East 446 513 33,000  Level Denver Center
02:25PM 39.6175 -103.9406 66° East 449 517 33,000  Level Denver Center
02:26PM 39.6761 -103.7661 66° East 449 517 33,000  Level Denver Center
02:27PM 39.7283 -103.6219 65° Northeast 439 505 33,000  Level Denver Center
02:28PM 39.7783 -103.4747 66° East 441 507 33,000  Level Denver Center
02:29PM 39.8289 -103.3275 66° East 442 509 33,000  Level Denver Center
02:30PM 39.8772 -103.1806 67° East 439 505 33,000  Level Denver Center
02:31PM 39.9264 -103.0356 66° East 436 502 33,000  Level Denver Center
02:32PM 39.9772 -102.8892 66° East 438 504 33,000  Level Denver Center
02:33PM 40.0178 -102.7650 67° East 441 507 33,000  Level Denver Center
02:34PM 40.0811 -102.5731 67° East 453 521 33,000  Level Denver Center
02:35PM 40.1211 -102.4531 66° East 453 521 33,000  Level Denver Center
02:36PM 40.1858 -102.2583 66° East 458 527 33,000  Level Denver Center
02:37PM 40.2319 -102.1142 67° East 451 519 33,000  Level Denver Center
02:38PM 40.2667 -101.9358 76° East 450 518 33,000  Level Denver Center
02:39PM 40.2994 -101.7872 74° East 446 513 33,000  Level Denver Center
02:40PM 40.3306 -101.6383 75° East 443 510 33,000  Level Denver Center
02:41PM 40.3672 -101.4650 74° East 443 510 33,000  Level Denver Center
02:42PM 40.4044 -101.2931 74° East 440 506 33,000  Level Denver Center
02:43PM 40.4347 -101.1467 75° East 438 504 33,000  Level Denver Center
02:44PM 40.4697 -100.9764 75° East 435 501 33,000  Level Denver Center
02:45PM 40.4994 -100.8294 75° East 437 503 33,000  Level Denver Center
02:46PM 40.5339 -100.6597 75° East 436 502 33,000  Level Denver Center
02:47PM 40.5642 -100.5122 75° East 440 506 33,000  Level Denver Center
02:48PM 40.5994 -100.3378 75° East 446 513 33,000  Level Denver Center
02:49PM 40.6292 -100.1850 76° East 451 519 33,000  Level Denver Center
02:50PM 40.6647 -100.0072 75° East 451 519 33,000  Level Denver Center
02:51PM 40.6969 -99.8433 75° East 452 520 33,000  Level Denver Center
02:53PM 40.7272 -99.6842 76° East 449 517 33,000  Level Denver Center
02:54PM 40.7642 -99.4944 76° East 446 513 33,000  Level Denver Center
02:55PM 40.7950 -99.3369 75° East 445 512 33,000  Level Denver Center
02:56PM 40.8244 -99.1803 76° East 443 510 33,000  Level Denver Center
02:57PM 40.8539 -99.0219 76° East 444 511 33,000  Level Denver Center
02:58PM 40.8869 -98.8464 76° East 443 510 33,000  Level Denver Center
02:59PM 40.9181 -98.6803 76° East 442 509 33,000  Level Denver Center
03:00PM 40.9458 -98.5292 76° East 443 510 33,000  Level Minneapolis Center
03:01PM 40.9739 -98.3669 77° East 444 511 33,000  Level Minneapolis Center
03:02PM 41.0197 -98.1819 72° East 443 510 33,000  Level Minneapolis Center
03:03PM 41.0608 -98.0278 70° East 445 512 33,000 -840 Level Minneapolis Center
03:04PM 41.1019 -97.8731 71° East 446 513 31,400 -2,100 Descending Minneapolis Center
03:05PM 41.1442 -97.7164 70° East 449 517 28,700 -2,460 Descending Minneapolis Center
03:06PM 41.1850 -97.5622 71° East 448 516 26,400 -2,220 Descending Minneapolis Center
03:07PM 41.2242 -97.4086 71° East 443 510 24,200 -2,100 Descending Minneapolis Center
03:08PM 41.2622 -97.2581 71° East 439 505 22,100 -2,400 Descending Minneapolis Center
03:08PM 41.2664 -97.1811 86° East 429 494 20,900 -2,040 Descending Minneapolis Center
03:09PM 41.3008 -97.1111 57° Northeast 431 496 20,000 -1,980 Descending Minneapolis Center
03:09PM 41.3064 -97.0386 84° East 416 479 18,900 -2,880 Descending Minneapolis Center
03:10PM 41.3458 -96.9372 63° Northeast 421 484 17,100 -2,760 Descending Minneapolis Center
03:10PM 41.3444 -96.8989 93° East 408 470 16,100 -3,240 Descending Minneapolis Center
03:11PM 41.3558 -96.7897 82° East 417 480 13,800 -3,300 Descending Minneapolis Center
03:11PM 41.3356 -96.7444 121° Southeast 417 480 12,800 -2,640 Descending Minneapolis Center
03:12PM 41.3292 -96.6417 95° East 415 478 11,100 -2,520 Descending Minneapolis Center
03:12PM 41.3097 -96.5892 116° Southeast 403 464 10,300 -900 Descending Minneapolis Center
03:13PM 41.3053 -96.5042 94° East 399 459 10,200 -300 Descending Minneapolis Center
03:13PM 41.2917 -96.4664 116° Southeast 311 358 10,000 -1,380 Descending Minneapolis Center
03:14PM 41.2864 -96.3947 96° East 326 375 8,800 -1,920 Descending Minneapolis Center
03:14PM 41.2725 -96.3547 115° Southeast 309 356 8,100 -1,680 Descending Minneapolis Center
03:15PM 41.2664 -96.2853 97° East 311 358 7,100 -1,620 Descending Minneapolis Center
03:15PM 41.2569 -96.2428 106° East 308 354 6,500 -720 Descending Minneapolis Center
03:16PM 41.2767 -96.1822 67° East 301 346 6,400 -120 Descending Minneapolis Center
03:16PM 41.2847 -96.1508 71° East 250 288 6,400 -300 Level Minneapolis Center
03:17PM 41.3136 -96.1144 43° Northeast 260 299 6,100 -720 Descending Minneapolis Center
03:18PM 41.3322 -96.1094 11° North 191 220 5,700 -1,200 Descending Minneapolis Center
03:18PM 41.3683 -96.0942 18° North 220 253 4,900 -1,320 Descending Minneapolis Center
03:19PM 41.3850 -96.0869 18° North 194 223 4,400 -1,320 Descending Minneapolis Center
03:19PM 41.3831 -96.0336 93° East 212 244 3,600 -1,320 Descending Minneapolis Center
03:20PM 41.3761 -96.0103 112° Southeast 192 221 3,100 -1,200 Descending Minneapolis Center
03:20PM 41.3692 -95.9628 101° East 198 228 2,400 -840 Descending Minneapolis Center
03:21PM 41.3358 -95.9253 140° Southeast 169 194 1,600 -600 Descending Minneapolis Center
03:22PM 41.3000 -95.8933 146° Southeast 156 180 1,200 -420 Descending Minneapolis Center
03:24PM 41.3000 -95.8833 North  Level FlightAware Approximate